リヴァプール の空港の天気 - METARとTAF

リバプール・ジョン・レノン空港 ( EGGP / LPL ) - イギリス リヴァプール
飛行場実況気象(Metar)
観測時間09/22 21:50 BST (09/22 20:50 UTC)
風向・風速南南東 3m/s
視程10km以上
天気現象
なし
気温17℃
湿度94%
気圧1003hPa
METAREGGP 222050Z 16005KT CAVOK 17/16 Q1003
過去の天気等 Google飛行場航空写真 Wunderground天気予報

過去48時間のMETAR

飛行場予報(TAF)
発表時間: 9/22 18:02 BST (9/22 17:02 UTC)
予報対象時間: 22日19時 BST ~ 23日19時 BST
風向・風速南東 4m/s
視程10km以上
少しの雲 雲底高度 760m
23日1時 BST ~ 23日4時 BST に徐々に
風向・風速南西 5m/s
23日1時 BST ~ 23日8時 BST に 確率 40% で一時的に
視程8000m
天気現象弱いしゅう雨
全天の8割程度の雲 雲底高度 370m
23日11時 BST ~ 23日14時 BST に徐々に
風向・風速南南東 7m/s
23日16時 BST ~ 23日19時 BST に一時的に
視程7000m
天気現象
23日16時 BST ~ 23日19時 BST に 確率 30% で一時的に
視程4000m
天気現象強い雨
全天の8割程度の雲 雲底高度 370m
TAF EGGP 221702Z 2218/2318 14007KT 9999 FEW025
BECMG 2300/2303 23010KT
PROB40 TEMPO 2300/2307 8000 -SHRA BKN012
BECMG 2310/2313 16013KT
TEMPO 2315/2318 7000 RA
PROB30 TEMPO 2315/2318 4000 +RA BKN012